Time;durP1;ratioP1;P1;durP2;ratioP2;P2;SDS_P1;SDS_P2;PMS_P1;PMS_P2;Temp;Humidity;BMP_temperature;BMP_pressure;BME280_temperature;BME280_humidity;BME280_pressure;Samples;Min_cycle;Max_cycle;Signal;HPM_P1;HPM_P2
2023/10/03 00:01:43;;;;;;;24.77;12.67;;;17.30;99.90;;;;;;4973949;28;20170;-72
2023/10/03 00:04:09;;;;;;;26.57;12.43;;;17.30;99.90;;;;;;4973797;28;20170;-71
2023/10/03 00:06:36;;;;;;;25.07;12.77;;;17.30;99.90;;;;;;4972258;28;20255;-72
2023/10/03 00:09:02;;;;;;;27.43;13.03;;;17.30;99.90;;;;;;4973507;28;20696;-72
2023/10/03 00:11:27;;;;;;;28.67;13.40;;;17.30;99.90;;;;;;4973307;28;20183;-72
2023/10/03 00:13:53;;;;;;;27.40;13.30;;;17.30;99.90;;;;;;4972862;28;20182;-72
2023/10/03 00:16:21;;;;;;;26.50;12.47;;;17.30;99.90;;;;;;4973079;28;20264;-72
2023/10/03 00:18:47;;;;;;;26.70;12.50;;;17.40;99.90;;;;;;4973125;28;20680;-71
2023/10/03 00:21:12;;;;;;;29.70;13.70;;;17.40;99.90;;;;;;4973353;28;20189;-70
2023/10/03 00:23:38;;;;;;;30.77;14.17;;;17.40;99.90;;;;;;4973159;28;20574;-71
2023/10/03 00:26:07;;;;;;;30.03;14.60;;;17.40;99.90;;;;;;4972216;28;20189;-71
2023/10/03 00:28:33;;;;;;;26.77;12.73;;;17.40;99.90;;;;;;4973016;28;20657;-72
2023/10/03 00:30:59;;;;;;;29.40;13.80;;;17.50;99.90;;;;;;4973089;28;20594;-72
2023/10/03 00:33:26;;;;;;;30.33;14.17;;;17.50;99.90;;;;;;4972996;28;20267;-72
2023/10/03 00:35:52;;;;;;;27.60;13.83;;;17.50;99.90;;;;;;4973015;28;20230;-71
2023/10/03 00:38:18;;;;;;;23.83;12.43;;;17.50;99.90;;;;;;4973092;28;20182;-71
2023/10/03 00:40:49;;;;;;;28.57;14.00;;;17.50;99.90;;;;;;4971034;28;20197;-72
2023/10/03 00:43:15;;;;;;;27.33;13.80;;;17.50;99.90;;;;;;4972708;28;20317;-72
2023/10/03 00:45:42;;;;;;;25.03;12.87;;;17.50;99.90;;;;;;4972897;28;20174;-72
2023/10/03 00:48:08;;;;;;;30.57;13.47;;;17.50;99.90;;;;;;4972814;28;20177;-72
2023/10/03 00:50:34;;;;;;;29.73;14.73;;;17.50;99.90;;;;;;4972770;28;20332;-72
2023/10/03 00:53:08;;;;;;;25.23;13.33;;;17.50;99.90;;;;;;4972594;28;20665;-72
2023/10/03 00:55:36;;;;;;;29.67;14.20;;;17.50;99.90;;;;;;4971598;28;20204;-73
2023/10/03 00:58:07;;;;;;;24.70;13.60;;;17.50;99.90;;;;;;4972279;28;20227;-73
2023/10/03 01:00:41;;;;;;;31.80;12.40;;;17.50;99.90;;;;;;4972672;28;20205;-73
2023/10/03 01:03:27;;;;;;;32.53;14.50;;;17.50;99.90;;;;;;4972438;28;20174;-73
2023/10/03 01:05:53;;;;;;;29.73;14.30;;;17.60;99.90;;;;;;4972648;28;20180;-72
2023/10/03 01:08:19;;;;;;;24.83;12.77;;;17.60;99.90;;;;;;4972705;28;20204;-73
2023/10/03 01:10:45;;;;;;;27.93;13.87;;;17.60;99.90;;;;;;4972327;28;20189;-73
2023/10/03 01:13:13;;;;;;;28.77;12.47;;;17.60;99.90;;;;;;4971839;28;20177;-73
2023/10/03 01:15:40;;;;;;;25.60;12.90;;;17.60;99.90;;;;;;4972365;28;20220;-72
2023/10/03 01:18:13;;;;;;;28.97;13.77;;;17.70;99.90;;;;;;4972444;28;20252;-71
2023/10/03 01:20:42;;;;;;;24.00;12.83;;;17.70;99.90;;;;;;4972459;28;20189;-71
2023/10/03 01:23:12;;;;;;;24.23;13.00;;;17.70;99.90;;;;;;4970956;28;20285;-71
2023/10/03 01:25:44;;;;;;;25.73;12.70;;;17.70;99.90;;;;;;4972628;28;20252;-72
2023/10/03 01:28:11;;;;;;;29.77;13.00;;;17.70;99.90;;;;;;4974101;28;20645;-72
2023/10/03 01:30:37;;;;;;;26.53;13.27;;;17.70;99.90;;;;;;4976180;28;20205;-72
2023/10/03 01:33:04;;;;;;;27.37;13.33;;;17.80;99.90;;;;;;4975843;28;20588;-72
2023/10/03 01:35:30;;;;;;;26.00;12.67;;;17.80;99.90;;;;;;4976229;28;20243;-71
2023/10/03 01:37:55;;;;;;;29.03;12.80;;;17.80;99.90;;;;;;4975999;28;20205;-72
2023/10/03 01:40:22;;;;;;;26.67;13.53;;;17.80;99.90;;;;;;4976267;28;20200;-72
2023/10/03 01:42:48;;;;;;;28.10;12.83;;;17.80;99.90;;;;;;4975513;28;20170;-72
2023/10/03 01:45:21;;;;;;;21.73;12.17;;;17.90;99.90;;;;;;4976230;28;20177;-72
2023/10/03 01:47:49;;;;;;;24.27;12.97;;;17.90;99.90;;;;;;4975934;28;20569;-72
2023/10/03 01:50:17;;;;;;;23.87;12.10;;;17.90;99.90;;;;;;4976205;28;20252;-71
2023/10/03 01:52:43;;;;;;;24.87;12.80;;;17.90;99.90;;;;;;4975577;28;20665;-72
2023/10/03 01:55:13;;;;;;;24.43;12.67;;;17.90;99.90;;;;;;4976194;28;20654;-72
2023/10/03 01:57:40;;;;;;;24.90;13.47;;;17.90;99.90;;;;;;4976339;28;20290;-71
2023/10/03 02:00:18;;;;;;;24.17;12.33;;;18.00;99.90;;;;;;4974495;28;20244;-72
2023/10/03 02:02:44;;;;;;;26.03;12.50;;;17.90;99.90;;;;;;4975569;28;20205;-72
2023/10/03 02:05:11;;;;;;;23.70;12.70;;;17.90;99.90;;;;;;4975392;28;20604;-71
2023/10/03 02:07:37;;;;;;;23.50;12.70;;;17.90;99.90;;;;;;4975993;28;20174;-72
2023/10/03 02:10:03;;;;;;;22.77;11.87;;;17.80;99.90;;;;;;4975753;28;20204;-71
2023/10/03 02:12:29;;;;;;;26.07;13.47;;;17.80;99.90;;;;;;4975169;28;20166;-72
2023/10/03 02:14:55;;;;;;;23.80;12.00;;;17.80;99.90;;;;;;4973836;28;20240;-73
2023/10/03 02:17:21;;;;;;;24.60;11.70;;;17.80;99.90;;;;;;4975677;28;20205;-72
2023/10/03 02:19:48;;;;;;;24.33;12.60;;;17.80;99.90;;;;;;4975628;28;20186;-72
2023/10/03 02:22:14;;;;;;;23.03;11.33;;;17.80;99.90;;;;;;4975243;28;20169;-72
2023/10/03 02:24:41;;;;;;;22.80;10.80;;;17.80;99.90;;;;;;4975560;28;20169;-71
2023/10/03 02:27:06;;;;;;;26.70;12.67;;;17.80;99.90;;;;;;4974102;28;20182;-71
2023/10/03 02:29:32;;;;;;;27.57;13.67;;;17.80;99.90;;;;;;4975516;28;20259;-72
2023/10/03 02:32:02;;;;;;;24.80;12.20;;;17.80;99.90;;;;;;4973687;28;20631;-71
2023/10/03 02:34:33;;;;;;;24.23;12.17;;;17.80;99.90;;;;;;4975510;28;20173;-71
2023/10/03 02:36:59;;;;;;;27.00;12.80;;;17.80;99.90;;;;;;4974796;28;20696;-73
2023/10/03 02:39:25;;;;;;;21.00;11.10;;;17.80;99.90;;;;;;4975303;28;20190;-72
2023/10/03 02:41:51;;;;;;;22.90;12.33;;;17.80;99.90;;;;;;4975002;28;20189;-72
2023/10/03 02:44:17;;;;;;;25.17;11.73;;;17.90;99.90;;;;;;4975263;28;20222;-71
2023/10/03 02:46:44;;;;;;;20.13;11.70;;;17.90;99.90;;;;;;4975008;28;20186;-72
2023/10/03 02:49:10;;;;;;;21.43;11.97;;;17.90;99.90;;;;;;4974169;28;20181;-71
2023/10/03 02:51:36;;;;;;;27.10;12.20;;;18.00;99.90;;;;;;4975026;28;20241;-72
2023/10/03 02:54:02;;;;;;;23.87;11.77;;;18.00;99.90;;;;;;4975148;28;20548;-72
2023/10/03 02:56:27;;;;;;;25.67;12.37;;;18.00;99.90;;;;;;4975166;28;20205;-72
2023/10/03 02:58:53;;;;;;;26.57;12.87;;;18.00;99.90;;;;;;4974733;28;20185;-72
2023/10/03 03:01:21;;;;;;;27.90;13.03;;;18.00;99.90;;;;;;4975047;28;20199;-73
2023/10/03 03:03:48;;;;;;;22.43;12.10;;;18.00;99.90;;;;;;4974627;28;20593;-72
2023/10/03 03:06:14;;;;;;;26.30;12.47;;;18.00;99.90;;;;;;4975007;28;20178;-73
2023/10/03 03:08:44;;;;;;;23.53;12.83;;;18.00;99.90;;;;;;4974807;28;20191;-72
2023/10/03 03:11:10;;;;;;;27.43;13.20;;;18.00;99.90;;;;;;4974573;28;20228;-73
2023/10/03 03:13:36;;;;;;;25.60;12.87;;;18.00;99.90;;;;;;4974746;28;20181;-73
2023/10/03 03:16:06;;;;;;;27.60;12.50;;;18.00;99.90;;;;;;4972982;28;20348;-73
2023/10/03 03:18:39;;;;;;;26.53;13.33;;;17.90;99.90;;;;;;4974439;28;20178;-73
2023/10/03 03:21:08;;;;;;;25.40;12.33;;;17.90;99.90;;;;;;4974542;28;20193;-73
2023/10/03 03:23:39;;;;;;;27.17;13.80;;;17.90;99.90;;;;;;4974493;28;20166;-73
2023/10/03 03:26:18;;;;;;;24.50;12.77;;;17.90;99.90;;;;;;4974588;28;20177;-73
2023/10/03 03:28:46;;;;;;;27.20;12.70;;;18.00;99.90;;;;;;4973531;28;20203;-72
2023/10/03 03:31:22;;;;;;;23.77;11.77;;;18.00;99.90;;;;;;4974109;28;20203;-73
2023/10/03 03:33:58;;;;;;;25.67;12.47;;;18.00;99.90;;;;;;4974436;28;20181;-73
2023/10/03 03:36:29;;;;;;;25.03;11.70;;;18.00;99.90;;;;;;4974391;28;20253;-73
2023/10/03 03:38:58;;;;;;;28.10;12.57;;;18.10;99.90;;;;;;4974225;28;20182;-73
2023/10/03 03:41:23;;;;;;;24.23;12.33;;;18.10;99.90;;;;;;4973969;28;20170;-73
2023/10/03 03:43:49;;;;;;;24.87;12.33;;;18.10;99.90;;;;;;4973920;28;20676;-72
2023/10/03 03:46:18;;;;;;;28.00;13.53;;;18.10;99.90;;;;;;4974064;28;20515;-73
2023/10/03 03:48:44;;;;;;;23.30;12.43;;;18.20;99.90;;;;;;4972573;28;20185;-73
2023/10/03 03:51:12;;;;;;;23.97;12.23;;;18.20;99.90;;;;;;4973419;28;20193;-71
2023/10/03 03:53:43;;;;;;;26.37;12.70;;;18.30;99.90;;;;;;4973927;28;20305;-72
2023/10/03 03:56:12;;;;;;;23.43;12.60;;;18.20;99.90;;;;;;4973959;28;20193;-73
2023/10/03 03:58:44;;;;;;;25.77;12.30;;;18.30;99.90;;;;;;4974042;28;20173;-73
2023/10/03 04:01:18;;;;;;;20.63;12.33;;;18.30;99.90;;;;;;4973713;28;20189;-72
2023/10/03 04:03:51;;;;;;;23.67;12.40;;;18.30;99.90;;;;;;4973552;28;20185;-72
2023/10/03 04:06:20;;;;;;;22.17;13.37;;;18.30;99.90;;;;;;4973920;28;20667;-73
2023/10/03 04:08:46;;;;;;;20.90;12.97;;;18.40;99.90;;;;;;4973424;28;20177;-73
2023/10/03 04:11:13;;;;;;;21.43;11.17;;;18.30;99.90;;;;;;4973334;28;20225;-72
2023/10/03 04:13:49;;;;;;;22.60;11.33;;;18.30;99.90;;;;;;4973670;28;20177;-73
2023/10/03 04:16:21;;;;;;;24.83;12.00;;;18.30;99.90;;;;;;4973498;28;20291;-72
2023/10/03 04:18:50;;;;;;;25.33;11.77;;;18.30;99.90;;;;;;4972939;28;20240;-73
2023/10/03 04:21:15;;;;;;;28.23;12.00;;;18.40;99.90;;;;;;4973256;28;20232;-73
2023/10/03 04:23:42;;;;;;;21.73;11.33;;;18.30;99.90;;;;;;4972173;28;20173;-72
2023/10/03 04:26:08;;;;;;;22.67;11.13;;;18.30;99.90;;;;;;4973525;28;20261;-72
2023/10/03 04:28:33;;;;;;;21.60;12.47;;;18.30;99.90;;;;;;4973522;28;20613;-73
2023/10/03 04:30:59;;;;;;;23.03;11.63;;;18.20;99.90;;;;;;4973030;28;20224;-73
2023/10/03 04:33:25;;;;;;;20.57;11.63;;;18.20;99.90;;;;;;4972029;28;20189;-73
2023/10/03 04:35:51;;;;;;;21.83;11.53;;;18.20;99.90;;;;;;4973055;28;20288;-73
2023/10/03 04:38:17;;;;;;;20.00;12.00;;;18.10;99.90;;;;;;4972873;28;20224;-72
2023/10/03 04:40:43;;;;;;;20.23;11.00;;;18.10;99.90;;;;;;4972788;28;20635;-72
2023/10/03 04:43:15;;;;;;;20.00;10.37;;;18.20;99.90;;;;;;4973001;28;20169;-72
2023/10/03 04:45:41;;;;;;;24.17;10.57;;;18.20;99.90;;;;;;4973209;28;20177;-71
2023/10/03 04:48:08;;;;;;;19.87;9.63;;;18.30;99.90;;;;;;4972995;28;20569;-73
2023/10/03 04:50:35;;;;;;;19.60;10.37;;;18.40;99.90;;;;;;4971835;28;20199;-71
2023/10/03 04:53:02;;;;;;;17.47;8.60;;;18.60;99.90;;;;;;4972619;28;20224;-71
2023/10/03 04:55:28;;;;;;;12.20;7.27;;;19.00;99.90;;;;;;4972765;28;20217;-71
2023/10/03 04:57:56;;;;;;;14.32;7.35;;;19.60;99.90;;;;;;4972935;28;20212;-72
2023/10/03 05:00:23;;;;;;;14.15;7.00;;;20.00;99.90;;;;;;4972926;28;20221;-71
2023/10/03 05:02:53;;;;;;;14.20;7.60;;;20.30;99.90;;;;;;4971835;28;20170;-73
2023/10/03 05:05:25;;;;;;;12.73;7.20;;;20.60;99.90;;;;;;4973161;28;20177;-71
2023/10/03 05:07:53;;;;;;;13.23;7.38;;;20.90;99.90;;;;;;4972940;28;20170;-73
2023/10/03 05:10:23;;;;;;;13.82;7.60;;;21.00;99.90;;;;;;4972514;28;20201;-72
2023/10/03 05:12:51;;;;;;;13.32;6.88;;;21.20;99.90;;;;;;4972149;28;20616;-72
2023/10/03 05:15:17;;;;;;;14.38;7.32;;;21.30;99.90;;;;;;4972661;28;20536;-73
2023/10/03 05:17:47;;;;;;;10.93;6.18;;;21.30;99.90;;;;;;4972802;28;20169;-71
2023/10/03 05:20:17;;;;;;;15.60;7.78;;;21.30;99.90;;;;;;4972623;28;20189;-71
2023/10/03 05:22:46;;;;;;;13.13;7.43;;;21.30;99.90;;;;;;4971260;28;20649;-72
2023/10/03 05:25:13;;;;;;;16.38;8.32;;;21.30;99.90;;;;;;4972647;28;20236;-72
2023/10/03 05:27:41;;;;;;;16.92;9.57;;;21.30;99.90;;;;;;4972704;28;20658;-73
2023/10/03 05:30:08;;;;;;;16.40;7.68;;;21.30;99.90;;;;;;4972329;28;20201;-73
2023/10/03 05:32:35;;;;;;;15.77;8.80;;;21.30;99.90;;;;;;4972351;28;20196;-72
2023/10/03 05:35:01;;;;;;;18.42;8.63;;;21.20;99.90;;;;;;4972360;28;20174;-71
2023/10/03 05:37:26;;;;;;;17.73;9.10;;;21.20;99.90;;;;;;4972506;28;20571;-72
2023/10/03 05:39:53;;;;;;;16.50;9.07;;;21.20;99.90;;;;;;4972183;28;20236;-72
2023/10/03 05:42:19;;;;;;;18.05;8.70;;;21.20;99.90;;;;;;4971993;28;20664;-73
2023/10/03 05:44:46;;;;;;;15.23;8.18;;;21.20;99.90;;;;;;4972017;28;20661;-72
2023/10/03 05:47:12;;;;;;;15.32;8.50;;;21.20;99.90;;;;;;4972206;28;20189;-73
2023/10/03 05:49:38;;;;;;;15.30;7.82;;;21.20;99.90;;;;;;4972372;28;20284;-73
2023/10/03 05:52:04;;;;;;;17.75;9.30;;;21.10;99.90;;;;;;4972077;28;20170;-73
2023/10/03 05:54:32;;;;;;;10.38;7.05;;;21.10;99.90;;;;;;4972438;28;20539;-73
2023/10/03 05:56:58;;;;;;;17.50;8.37;;;21.10;99.90;;;;;;4971776;28;20212;-73
2023/10/03 05:59:26;;;;;;;20.53;8.77;;;21.10;99.90;;;;;;4972171;28;20197;-74
2023/10/03 06:01:52;;;;;;;17.85;8.75;;;21.10;99.90;;;;;;4972100;28;20519;-74
2023/10/03 06:04:17;;;;;;;18.38;7.90;;;21.20;99.90;;;;;;4970686;28;20268;-71
2023/10/03 06:06:46;;;;;;;13.20;7.47;;;21.10;99.90;;;;;;4970588;28;20192;-71
2023/10/03 06:09:11;;;;;;;16.50;8.30;;;21.10;99.90;;;;;;4972007;28;20177;-72
2023/10/03 06:11:38;;;;;;;15.35;8.38;;;21.10;99.90;;;;;;4971902;28;20169;-70
2023/10/03 06:14:04;;;;;;;15.13;8.33;;;21.10;99.90;;;;;;4972692;28;20181;-70
2023/10/03 06:16:30;;;;;;;13.70;7.87;;;21.10;99.90;;;;;;4975838;28;20198;-71
2023/10/03 06:18:57;;;;;;;15.80;8.32;;;21.10;99.90;;;;;;4975449;28;20178;-71
2023/10/03 06:21:23;;;;;;;21.60;8.35;;;21.10;99.90;;;;;;4975447;28;20522;-71
2023/10/03 06:23:52;;;;;;;16.45;7.30;;;21.10;99.90;;;;;;4975214;28;20224;-71
2023/10/03 06:26:19;;;;;;;11.82;7.47;;;21.10;99.90;;;;;;4975219;28;20266;-71
2023/10/03 06:28:45;;;;;;;11.15;6.78;;;21.10;99.90;;;;;;4975493;28;20180;-70
2023/10/03 06:31:11;;;;;;;13.10;7.57;;;21.10;99.90;;;;;;4974646;28;20202;-69
2023/10/03 06:33:37;;;;;;;16.27;7.38;;;21.10;99.90;;;;;;4974126;28;20673;-72
2023/10/03 06:36:06;;;;;;;11.00;6.50;;;21.10;99.90;;;;;;4975221;28;20205;-69
2023/10/03 06:38:32;;;;;;;12.20;7.80;;;21.00;99.90;;;;;;4975287;28;20197;-70
2023/10/03 06:40:58;;;;;;;13.85;8.00;;;21.00;99.90;;;;;;4974787;28;20267;-71
2023/10/03 06:43:23;;;;;;;9.63;6.88;;;20.90;99.90;;;;;;4975239;28;20178;-70
2023/10/03 06:45:49;;;;;;;10.95;6.00;;;20.90;99.90;;;;;;4975142;28;20248;-71
2023/10/03 06:48:14;;;;;;;11.57;6.72;;;20.90;99.90;;;;;;4974977;28;20666;-71
2023/10/03 06:50:42;;;;;;;12.80;6.22;;;20.80;99.90;;;;;;4975106;28;20185;-70
2023/10/03 06:53:09;;;;;;;12.90;7.10;;;20.80;99.90;;;;;;4974311;28;20227;-70
2023/10/03 06:55:36;;;;;;;11.68;6.43;;;20.70;99.90;;;;;;4974330;28;20541;-70
2023/10/03 06:58:02;;;;;;;15.68;7.05;;;20.70;99.90;;;;;;4974111;28;20174;-70
2023/10/03 07:00:30;;;;;;;12.75;6.57;;;20.70;99.90;;;;;;4974703;28;20212;-71
2023/10/03 07:02:56;;;;;;;9.45;6.72;;;20.70;99.90;;;;;;4974215;28;20252;-69
2023/10/03 07:05:21;;;;;;;11.10;6.00;;;20.70;99.90;;;;;;4974731;28;20249;-69
2023/10/03 07:07:47;;;;;;;10.95;6.70;;;20.70;99.90;;;;;;4974725;28;20615;-71
2023/10/03 07:10:13;;;;;;;12.18;6.40;;;20.70;99.90;;;;;;4974109;28;20241;-70
2023/10/03 07:12:39;;;;;;;8.35;5.88;;;20.60;99.90;;;;;;4973963;28;20181;-70
2023/10/03 07:15:08;;;;;;;13.38;6.63;;;20.60;99.90;;;;;;4974373;28;20181;-71
2023/10/03 07:17:35;;;;;;;11.52;6.85;;;20.60;99.90;;;;;;4974550;28;20632;-70
2023/10/03 07:20:04;;;;;;;8.75;6.38;;;20.50;99.90;;;;;;4974489;28;20189;-72
2023/10/03 07:22:30;;;;;;;9.90;6.83;;;20.40;99.90;;;;;;4974446;28;20209;-71
2023/10/03 07:24:56;;;;;;;10.43;6.05;;;20.40;99.90;;;;;;4973855;28;20252;-71
2023/10/03 07:27:21;;;;;;;14.32;6.60;;;20.40;99.90;;;;;;4973574;28;20193;-71
2023/10/03 07:29:47;;;;;;;9.93;5.72;;;20.30;99.90;;;;;;4973982;28;20611;-71
2023/10/03 07:32:14;;;;;;;12.90;6.23;;;20.30;99.90;;;;;;4973814;28;20258;-72
2023/10/03 07:34:46;;;;;;;8.35;5.80;;;20.30;99.90;;;;;;4972870;28;20177;-72
2023/10/03 07:37:12;;;;;;;9.88;5.85;;;20.30;99.90;;;;;;4974069;28;20284;-72
2023/10/03 07:39:39;;;;;;;6.65;5.07;;;20.30;99.90;;;;;;4974110;28;20189;-72
2023/10/03 07:42:05;;;;;;;7.00;5.07;;;20.30;99.90;;;;;;4973849;28;20221;-73
2023/10/03 07:44:31;;;;;;;6.37;5.37;;;20.30;99.90;;;;;;4973644;28;20185;-72
2023/10/03 07:46:58;;;;;;;5.97;4.83;;;20.30;99.90;;;;;;4973751;28;20193;-70
2023/10/03 07:49:23;;;;;;;7.65;5.18;;;20.40;99.90;;;;;;4973878;28;20197;-73
2023/10/03 07:51:56;;;;;;;8.48;4.43;;;20.40;99.90;;;;;;4973744;28;20733;-74
2023/10/03 07:54:22;;;;;;;8.57;5.45;;;20.50;99.90;;;;;;4973429;28;20169;-74
2023/10/03 07:56:48;;;;;;;9.18;4.80;;;20.60;99.90;;;;;;4973839;28;20228;-73
2023/10/03 07:59:14;;;;;;;5.88;5.25;;;20.70;99.90;;;;;;4973195;28;20205;-71
2023/10/03 08:01:40;;;;;;;6.60;4.90;;;20.70;99.90;;;;;;4973697;28;20191;-72
2023/10/03 08:04:12;;;;;;;8.23;5.28;;;20.80;99.90;;;;;;4973695;28;20173;-71
2023/10/03 08:06:39;;;;;;;8.93;5.00;;;20.80;99.90;;;;;;4973712;28;20181;-72
2023/10/03 08:09:04;;;;;;;6.05;4.68;;;20.80;99.90;;;;;;4973337;28;20177;-73
2023/10/03 08:11:31;;;;;;;6.88;5.05;;;20.80;99.90;;;;;;4972988;28;20184;-72
2023/10/03 08:13:58;;;;;;;8.00;5.35;;;20.90;99.90;;;;;;4973648;28;20602;-71
2023/10/03 08:16:25;;;;;;;4.90;4.40;;;21.00;99.90;;;;;;4973194;28;20286;-73
2023/10/03 08:18:57;;;;;;;5.25;4.60;;;21.20;99.90;;;;;;4973273;28;20169;-72
2023/10/03 08:21:29;;;;;;;7.43;4.95;;;21.50;99.90;;;;;;4973268;28;20172;-72
2023/10/03 08:23:56;;;;;;;5.18;4.65;;;21.60;99.90;;;;;;4973972;28;20201;-74
2023/10/03 08:26:23;;;;;;;9.38;4.55;;;21.70;99.90;;;;;;4973075;28;20177;-73
2023/10/03 08:28:59;;;;;;;5.13;4.63;;;21.80;99.90;;;;;;4973314;28;20181;-74
2023/10/03 08:31:27;;;;;;;8.50;4.80;;;21.80;99.90;;;;;;4972869;28;20184;-73
2023/10/03 08:33:55;;;;;;;5.57;4.53;;;21.80;99.90;;;;;;4973083;28;20216;-74
2023/10/03 08:36:37;;;;;;;6.55;4.90;;;21.80;99.90;;;;;;4973202;28;20186;-73
2023/10/03 08:39:12;;;;;;;6.53;4.57;;;21.80;99.90;;;;;;4972950;28;20757;-73
2023/10/03 08:41:48;;;;;;;6.00;4.32;;;21.60;99.90;;;;;;4972695;28;22175;-73
2023/10/03 08:44:14;;;;;;;7.57;5.50;;;21.50;99.90;;;;;;4972689;28;20247;-74
2023/10/03 08:46:49;;;;;;;6.65;4.75;;;21.40;99.90;;;;;;4972940;28;20248;-72
2023/10/03 08:49:19;;;;;;;5.65;4.45;;;21.30;99.90;;;;;;4972662;28;20247;-74
2023/10/03 08:51:48;;;;;;;4.78;4.38;;;21.00;99.90;;;;;;4972757;28;20260;-72
2023/10/03 08:54:14;;;;;;;6.32;4.50;;;21.00;99.90;;;;;;4972701;28;20645;-73
2023/10/03 08:56:41;;;;;;;4.82;4.43;;;21.00;99.90;;;;;;4972318;28;20202;-74
2023/10/03 08:59:15;;;;;;;7.97;5.28;;;21.00;99.90;;;;;;4972298;28;20205;-71
2023/10/03 09:01:47;;;;;;;6.97;4.93;;;21.10;99.90;;;;;;4972465;28;20169;-72
2023/10/03 09:04:16;;;;;;;8.63;5.13;;;21.20;99.90;;;;;;4972593;28;20192;-72
2023/10/03 09:06:45;;;;;;;4.72;4.30;;;21.10;99.90;;;;;;4972603;28;20660;-71
2023/10/03 09:09:16;;;;;;;5.47;4.60;;;21.20;99.90;;;;;;4972259;28;20257;-72
2023/10/03 09:11:44;;;;;;;6.80;4.43;;;21.20;99.90;;;;;;4971875;28;20188;-71
2023/10/03 09:14:19;;;;;;;4.45;4.05;;;21.20;99.90;;;;;;4972153;28;20178;-71
2023/10/03 09:16:50;;;;;;;5.70;4.45;;;21.20;99.90;;;;;;4972628;28;20208;-71
2023/10/03 09:19:25;;;;;;;4.90;4.40;;;21.30;99.90;;;;;;4972357;28;20281;-71
2023/10/03 09:21:54;;;;;;;8.75;4.75;;;21.30;99.90;;;;;;4972315;28;20212;-71
2023/10/03 09:24:21;;;;;;;4.50;4.05;;;21.30;99.90;;;;;;4972621;28;20197;-74
2023/10/03 09:26:51;;;;;;;9.98;4.25;;;21.30;99.90;;;;;;4972928;28;20204;-74
2023/10/03 09:29:32;;;;;;;5.93;4.35;;;21.50;99.90;;;;;;4971980;28;20205;-72
2023/10/03 09:32:16;;;;;;;7.97;4.82;;;21.50;99.90;;;;;;4972233;28;20173;-73
2023/10/03 09:34:43;;;;;;;4.95;4.50;;;21.70;99.90;;;;;;4972812;28;20176;-75
2023/10/03 09:37:10;;;;;;;10.30;4.57;;;21.80;99.90;;;;;;4971989;28;20260;-74
2023/10/03 09:39:47;;;;;;;5.30;4.60;;;21.80;99.90;;;;;;4972111;28;20188;-74
2023/10/03 09:42:18;;;;;;;6.10;4.38;;;21.80;99.90;;;;;;4970831;28;20177;-74
2023/10/03 09:44:46;;;;;;;10.48;5.10;;;21.70;99.90;;;;;;4972205;28;20182;-74
2023/10/03 09:47:29;;;;;;;7.15;4.18;;;21.50;99.90;;;;;;4970363;28;20197;-74
2023/10/03 09:50:03;;;;;;;6.57;4.95;;;21.50;99.90;;;;;;4974966;28;20244;-74
2023/10/03 09:52:30;;;;;;;9.23;4.38;;;21.40;99.90;;;;;;4975603;28;20169;-74
2023/10/03 09:55:00;;;;;;;8.20;4.85;;;21.40;99.90;;;;;;4975456;28;20217;-71
2023/10/03 09:57:29;;;;;;;5.03;4.07;;;21.40;99.90;;;;;;4974332;28;20752;-72
2023/10/03 09:59:56;;;;;;;5.20;4.40;;;21.50;99.90;;;;;;4975602;28;20186;-74
2023/10/03 10:02:36;;;;;;;5.45;4.50;;;21.60;99.90;;;;;;4975263;28;20252;-72
2023/10/03 10:05:19;;;;;;;6.18;4.35;;;21.70;99.90;;;;;;4975423;28;20574;-72
2023/10/03 10:08:06;;;;;;;8.07;4.68;;;21.80;99.90;;;;;;4975900;28;20193;-72
2023/10/03 10:10:34;;;;;;;5.45;4.28;;;21.90;99.90;;;;;;4975295;28;20193;-74
2023/10/03 10:13:20;;;;;;;8.85;4.80;;;21.90;99.90;;;;;;4973952;28;20186;-73
2023/10/03 10:16:07;;;;;;;7.68;4.18;;;21.90;99.90;;;;;;4975183;28;20678;-74
2023/10/03 10:18:45;;;;;;;5.20;4.30;;;21.90;99.90;;;;;;4975015;28;20260;-74
2023/10/03 10:21:37;;;;;;;6.43;5.40;;;21.80;99.90;;;;;;4975156;28;20194;-74
2023/10/03 10:24:13;;;;;;;5.85;4.15;;;21.60;99.90;;;;;;4975046;28;20189;-73
2023/10/03 10:26:39;;;;;;;6.45;4.38;;;21.50;99.90;;;;;;4974939;28;20178;-74
2023/10/03 10:29:11;;;;;;;7.45;4.07;;;21.30;99.90;;;;;;4975294;28;20192;-73
2023/10/03 10:31:44;;;;;;;5.38;4.40;;;21.10;99.90;;;;;;4974820;28;20208;-74
2023/10/03 10:34:22;;;;;;;6.57;4.28;;;21.00;99.90;;;;;;4975214;28;20757;-74
2023/10/03 10:37:01;;;;;;;5.70;4.53;;;20.80;99.90;;;;;;4975409;28;20281;-72
2023/10/03 10:39:56;;;;;;;6.95;4.70;;;20.70;99.90;;;;;;4975285;28;20247;-73
2023/10/03 10:42:25;;;;;;;10.25;4.95;;;20.50;99.90;;;;;;4966054;28;20197;-75
2023/10/03 10:45:16;;;;;;;4.40;4.00;;;20.40;99.90;;;;;;4975581;28;20252;-74
2023/10/03 10:47:49;;;;;;;5.78;4.63;;;20.40;99.90;;;;;;4975354;28;20209;-74
2023/10/03 10:50:17;;;;;;;6.35;5.07;;;20.30;99.90;;;;;;4974487;28;20271;-76
2023/10/03 10:52:51;;;;;;;6.07;5.13;;;20.20;99.90;;;;;;4975064;28;20178;-74
2023/10/03 10:55:17;;;;;;;4.50;4.10;;;20.10;99.90;;;;;;4974869;28;20184;-73
2023/10/03 10:57:43;;;;;;;4.53;3.80;;;19.30;99.90;;;;;;4974927;28;20677;-75
2023/10/03 11:00:22;;;;;;;4.97;4.47;;;18.50;99.90;;;;;;4973731;28;20192;-72
2023/10/03 11:02:48;;;;;;;5.27;4.37;;;18.00;99.90;;;;;;4974188;28;20317;-74
2023/10/03 11:05:13;;;;;;;4.07;3.77;;;17.70;99.90;;;;;;4974437;28;20279;-73
2023/10/03 11:07:49;;;;;;;6.80;4.83;;;17.50;99.90;;;;;;4974275;28;20177;-74
2023/10/03 11:10:17;;;;;;;6.23;4.97;;;17.40;99.90;;;;;;4973495;28;20197;-75
2023/10/03 11:12:43;;;;;;;8.93;5.40;;;17.20;99.90;;;;;;4974450;28;20597;-76
2023/10/03 11:15:12;;;;;;;7.13;5.00;;;17.20;99.90;;;;;;4974701;28;20232;-76
2023/10/03 11:17:38;;;;;;;6.47;5.63;;;17.10;99.90;;;;;;4974622;28;20228;-75
2023/10/03 11:20:08;;;;;;;6.37;5.80;;;17.00;99.90;;;;;;4974839;28;20232;-76
2023/10/03 11:22:37;;;;;;;9.73;6.67;;;17.00;99.90;;;;;;4974065;28;20185;-75
2023/10/03 11:25:09;;;;;;;8.97;6.57;;;17.10;99.90;;;;;;4974552;28;20165;-75
2023/10/03 11:27:35;;;;;;;9.60;6.80;;;17.10;99.90;;;;;;4974397;28;20738;-75
2023/10/03 11:30:14;;;;;;;9.63;6.57;;;17.20;99.90;;;;;;4974475;28;20276;-75
2023/10/03 11:32:40;;;;;;;9.67;7.40;;;17.20;99.90;;;;;;4973830;28;20183;-74
2023/10/03 11:35:21;;;;;;;10.80;7.40;;;17.30;99.90;;;;;;4974069;28;20609;-75
2023/10/03 11:37:48;;;;;;;10.03;7.20;;;17.40;99.90;;;;;;4973509;28;20618;-74
2023/10/03 11:40:21;;;;;;;9.40;8.20;;;17.50;99.90;;;;;;4974330;28;20193;-74
2023/10/03 11:42:50;;;;;;;9.27;7.27;;;17.50;99.90;;;;;;4973956;28;20177;-73
2023/10/03 11:45:23;;;;;;;9.93;7.93;;;17.50;99.90;;;;;;4973997;28;20165;-75
2023/10/03 11:48:17;;;;;;;13.97;7.90;;;17.50;99.90;;;;;;4973683;28;20195;-75
2023/10/03 11:50:44;;;;;;;11.43;7.77;;;17.40;99.90;;;;;;4971942;28;20293;-75
2023/10/03 11:53:10;;;;;;;9.17;6.40;;;17.40;99.90;;;;;;4973262;28;20208;-75
2023/10/03 11:55:38;;;;;;;9.07;5.80;;;17.20;99.90;;;;;;4973878;28;20646;-75
2023/10/03 11:58:09;;;;;;;5.43;4.93;;;17.10;99.90;;;;;;4973741;28;20229;-74
2023/10/03 12:00:35;;;;;;;8.07;4.63;;;17.00;99.90;;;;;;4972958;28;20205;-74
2023/10/03 12:03:03;;;;;;;5.50;4.27;;;17.00;99.90;;;;;;4974153;28;20220;-75
2023/10/03 12:05:29;;;;;;;6.10;3.83;;;16.90;99.90;;;;;;4972282;28;20181;-75
2023/10/03 12:07:56;;;;;;;4.83;3.53;;;16.80;99.90;;;;;;4973574;28;20182;-76
2023/10/03 12:10:24;;;;;;;5.53;3.40;;;16.80;99.90;;;;;;4972078;28;20196;-76
2023/10/03 12:12:50;;;;;;;3.87;3.53;;;16.80;99.90;;;;;;4972995;28;20570;-77
2023/10/03 12:15:17;;;;;;;3.87;3.10;;;16.60;99.90;;;;;;4973413;28;20192;-74
2023/10/03 12:17:47;;;;;;;3.13;2.77;;;16.60;99.90;;;;;;4973307;28;20247;-75
2023/10/03 12:20:14;;;;;;;4.37;3.37;;;16.50;99.90;;;;;;4973292;28;20247;-74
2023/10/03 12:22:45;;;;;;;4.23;3.30;;;16.50;99.90;;;;;;4972634;28;20177;-74
2023/10/03 12:25:11;;;;;;;6.57;3.23;;;16.40;99.90;;;;;;4972657;28;20590;-74
2023/10/03 12:27:41;;;;;;;4.57;3.00;;;16.40;99.90;;;;;;4973166;28;20185;-74
2023/10/03 12:30:10;;;;;;;3.53;3.33;;;16.30;99.90;;;;;;4971979;28;20708;-75
2023/10/03 12:32:39;;;;;;;2.87;2.67;;;16.30;99.90;;;;;;4971504;28;20260;-76
2023/10/03 12:35:07;;;;;;;4.23;2.80;;;16.20;99.90;;;;;;4973129;28;20345;-76
2023/10/03 12:37:34;;;;;;;3.47;3.20;;;16.10;99.90;;;;;;4971456;28;20291;-73
2023/10/03 12:40:04;;;;;;;3.60;3.10;;;16.00;99.90;;;;;;4973112;28;20192;-73
2023/10/03 12:42:31;;;;;;;6.60;2.60;;;16.10;99.90;;;;;;4972679;28;20170;-73
2023/10/03 12:45:00;;;;;;;3.03;2.73;;;16.10;99.90;;;;;;4973094;28;20181;-73
2023/10/03 12:47:26;;;;;;;3.40;3.10;;;16.10;99.90;;;;;;4972436;28;20272;-75